createdAt,value
2022-09-23T00:01:55.758Z,5.51
2022-09-23T00:05:19.030Z,5.51
2022-09-23T00:08:42.387Z,5.49
2022-09-23T00:12:08.665Z,5.54
2022-09-23T00:15:31.594Z,5.57
2022-09-23T00:18:53.689Z,5.54
2022-09-23T00:22:17.396Z,5.51
2022-09-23T00:25:39.452Z,5.53
2022-09-23T00:29:01.252Z,5.51
2022-09-23T00:32:23.164Z,5.49
2022-09-23T00:35:45.295Z,5.40
2022-09-23T00:39:09.864Z,5.46
2022-09-23T00:42:31.753Z,5.45
2022-09-23T00:45:55.115Z,5.45
2022-09-23T00:49:30.249Z,5.40
2022-09-23T00:52:56.937Z,5.33
2022-09-23T00:56:22.651Z,5.28
2022-09-23T00:59:45.748Z,5.34
2022-09-23T01:03:09.684Z,5.31
2022-09-23T01:06:31.921Z,5.36
2022-09-23T01:09:53.441Z,5.32
2022-09-23T01:13:25.310Z,5.37
2022-09-23T01:16:55.320Z,5.36
2022-09-23T01:20:43.889Z,5.30
2022-09-23T01:24:36.501Z,5.32
2022-09-23T01:28:19.145Z,5.28
2022-09-23T01:31:47.728Z,5.27
2022-09-23T01:35:17.264Z,5.25
2022-09-23T01:38:46.336Z,5.22
2022-09-23T01:42:18.290Z,5.25
2022-09-23T01:45:46.196Z,5.27
2022-09-23T01:49:17.716Z,5.25
2022-09-23T01:52:44.901Z,5.23
2022-09-23T01:56:12.052Z,5.30
2022-09-23T01:59:39.601Z,5.33
2022-09-23T02:03:05.879Z,5.27
2022-09-23T02:06:33.348Z,5.35
2022-09-23T02:10:03.507Z,5.36
2022-09-23T02:13:32.802Z,5.40
2022-09-23T02:16:58.420Z,5.41
2022-09-23T02:20:25.930Z,5.41
2022-09-23T02:23:52.270Z,5.40
2022-09-23T02:27:21.437Z,5.39
2022-09-23T02:30:51.025Z,5.36
2022-09-23T02:34:22.197Z,5.38
2022-09-23T02:37:50.340Z,5.39
2022-09-23T02:41:19.249Z,5.32
2022-09-23T02:44:41.402Z,5.35
2022-09-23T02:48:08.067Z,5.37
2022-09-23T02:51:30.289Z,5.28
2022-09-23T02:54:52.628Z,5.37
2022-09-23T02:58:15.940Z,5.36
2022-09-23T03:01:47.968Z,5.34
2022-09-23T03:05:24.000Z,5.38
2022-09-23T03:08:50.656Z,5.33
2022-09-23T03:12:18.629Z,5.36
2022-09-23T03:15:52.620Z,5.34
2022-09-23T03:19:26.409Z,5.34
2022-09-23T03:22:53.017Z,5.31
2022-09-23T03:26:21.145Z,5.32
2022-09-23T03:29:47.571Z,5.26
2022-09-23T03:33:14.702Z,5.18
2022-09-23T03:36:53.877Z,5.20
2022-09-23T03:40:19.640Z,5.16
2022-09-23T03:43:41.876Z,5.14
2022-09-23T03:47:04.581Z,5.12
2022-09-23T03:50:29.047Z,5.08
2022-09-23T03:53:51.671Z,5.09
2022-09-23T03:57:14.193Z,5.05
2022-09-23T04:00:43.484Z,5.00
2022-09-23T04:04:07.887Z,4.96
2022-09-23T04:07:32.121Z,4.96
2022-09-23T04:10:55.294Z,4.91
2022-09-23T04:14:18.764Z,4.80
2022-09-23T04:17:42.641Z,4.76
2022-09-23T04:21:05.707Z,4.69
2022-09-23T04:24:30.510Z,4.75
2022-09-23T04:27:53.364Z,4.71
2022-09-23T04:31:16.178Z,4.71
2022-09-23T04:34:40.108Z,4.66
2022-09-23T04:38:02.970Z,4.58
2022-09-23T04:41:27.150Z,4.57
2022-09-23T04:44:49.907Z,4.55
2022-09-23T04:48:14.199Z,4.51
2022-09-23T04:51:37.362Z,4.49
2022-09-23T04:55:00.529Z,4.51
2022-09-23T04:58:25.845Z,4.52
2022-09-23T05:01:48.915Z,4.55
2022-09-23T05:05:12.009Z,4.63
2022-09-23T05:08:34.521Z,4.70
2022-09-23T05:11:56.968Z,4.74
2022-09-23T05:15:21.671Z,4.79
2022-09-23T05:18:45.749Z,4.84
2022-09-23T05:22:08.513Z,4.94
2022-09-23T05:25:34.046Z,5.01
2022-09-23T05:28:59.814Z,5.07
2022-09-23T05:32:24.866Z,5.12
2022-09-23T05:35:49.670Z,5.21
2022-09-23T05:39:12.422Z,5.30
2022-09-23T05:42:35.595Z,5.37
2022-09-23T05:46:07.999Z,5.45
2022-09-23T05:49:55.222Z,5.47
2022-09-23T05:53:18.778Z,5.62
2022-09-23T05:56:42.653Z,5.69
2022-09-23T06:00:06.835Z,5.83
2022-09-23T06:03:29.387Z,5.90
2022-09-23T06:06:54.199Z,5.95
2022-09-23T06:10:17.156Z,6.04
2022-09-23T06:13:40.835Z,6.16
2022-09-23T06:17:03.484Z,6.29
2022-09-23T06:20:26.131Z,6.36
2022-09-23T06:23:53.959Z,6.41
2022-09-23T06:27:19.029Z,6.53
2022-09-23T06:30:42.906Z,6.64
2022-09-23T06:34:11.655Z,6.77
2022-09-23T06:37:36.004Z,6.85
2022-09-23T06:41:00.795Z,6.97
2022-09-23T06:44:23.755Z,7.07
2022-09-23T06:47:50.394Z,7.14
2022-09-23T06:51:19.703Z,7.26
2022-09-23T06:54:42.916Z,7.42
2022-09-23T06:58:07.672Z,7.44
2022-09-23T07:01:30.648Z,7.70
2022-09-23T07:04:53.799Z,7.83
2022-09-23T07:08:16.971Z,7.96
2022-09-23T07:11:40.226Z,8.10
2022-09-23T07:15:04.323Z,8.19
2022-09-23T07:18:30.994Z,8.28
2022-09-23T07:21:55.865Z,8.33
2022-09-23T07:25:18.826Z,8.44
2022-09-23T07:28:42.195Z,8.57
2022-09-23T07:32:13.567Z,8.66
2022-09-23T07:35:42.456Z,8.70
2022-09-23T07:39:05.826Z,8.87
2022-09-23T07:42:28.985Z,8.95
2022-09-23T07:45:52.840Z,9.02
2022-09-23T07:49:17.779Z,9.09
2022-09-23T07:52:41.867Z,9.12
2022-09-23T07:56:07.520Z,9.12
2022-09-23T07:59:30.238Z,9.08
2022-09-23T08:02:53.528Z,9.19
2022-09-23T08:06:18.208Z,9.33
2022-09-23T08:09:43.051Z,9.49
2022-09-23T08:13:05.760Z,9.59
2022-09-23T08:16:29.126Z,9.71
2022-09-23T08:19:52.201Z,9.72
2022-09-23T08:23:17.921Z,9.71
2022-09-23T08:26:40.877Z,9.77
2022-09-23T08:30:03.641Z,9.92
2022-09-23T08:33:28.230Z,10.07
2022-09-23T08:36:52.837Z,10.24
2022-09-23T08:40:25.080Z,10.37
2022-09-23T08:43:51.447Z,10.52
2022-09-23T08:47:20.250Z,10.60
2022-09-23T08:50:44.226Z,10.78
2022-09-23T08:54:08.630Z,10.88
2022-09-23T08:57:43.255Z,10.92
2022-09-23T09:01:15.271Z,10.95
2022-09-23T09:04:44.849Z,10.99
2022-09-23T09:08:08.420Z,11.04
2022-09-23T09:11:37.930Z,11.16
2022-09-23T09:15:06.624Z,11.25
2022-09-23T09:18:35.360Z,11.32
2022-09-23T09:21:58.487Z,11.39
2022-09-23T09:25:30.858Z,11.37
2022-09-23T09:29:23.890Z,11.42
2022-09-23T09:32:51.198Z,11.56
2022-09-23T09:36:32.277Z,11.70
2022-09-23T09:39:56.677Z,11.82
2022-09-23T09:43:23.929Z,11.85
2022-09-23T09:47:16.896Z,11.91
2022-09-23T09:50:47.744Z,11.99
2022-09-23T09:54:28.021Z,12.07
2022-09-23T09:57:55.833Z,12.17
2022-09-23T10:01:26.037Z,12.18
2022-09-23T10:04:58.739Z,12.23
2022-09-23T10:08:29.687Z,12.20
2022-09-23T10:12:13.431Z,12.24
2022-09-23T10:15:50.630Z,12.37
2022-09-23T10:19:26.027Z,12.49
2022-09-23T10:22:48.939Z,12.47
2022-09-23T10:26:14.356Z,12.49
2022-09-23T10:29:41.026Z,12.55
2022-09-23T10:33:03.960Z,12.58
2022-09-23T10:36:27.451Z,12.59
2022-09-23T10:40:08.254Z,12.52
2022-09-23T10:43:56.882Z,12.55
2022-09-23T10:47:36.232Z,12.53
2022-09-23T10:51:00.206Z,12.64
2022-09-23T10:54:31.771Z,12.70
2022-09-23T10:58:11.224Z,12.74
2022-09-23T11:01:42.549Z,12.82
2022-09-23T11:05:34.006Z,12.89
2022-09-23T11:09:11.518Z,12.80
2022-09-23T11:12:46.061Z,12.74
2022-09-23T11:16:20.825Z,12.68
2022-09-23T11:20:11.504Z,12.58
2022-09-23T11:24:01.727Z,12.58
2022-09-23T11:27:36.750Z,12.64
2022-09-23T11:31:10.533Z,12.64
2022-09-23T11:34:55.098Z,12.58
2022-09-23T11:38:26.373Z,12.45
2022-09-23T11:41:51.181Z,12.48
2022-09-23T11:45:22.029Z,12.51
2022-09-23T11:48:53.075Z,12.49
2022-09-23T11:52:22.181Z,12.42
2022-09-23T11:55:57.574Z,12.44
2022-09-23T11:59:39.227Z,12.49
2022-09-23T12:03:11.107Z,12.58
2022-09-23T12:06:40.420Z,12.77
2022-09-23T12:10:06.861Z,13.04
2022-09-23T12:13:42.090Z,13.17
2022-09-23T12:17:20.215Z,13.23
2022-09-23T12:20:58.238Z,13.22
2022-09-23T12:24:52.746Z,13.26
2022-09-23T12:28:20.099Z,13.35
2022-09-23T12:31:47.425Z,13.36
2022-09-23T12:35:24.250Z,13.29
2022-09-23T12:38:51.918Z,13.25
2022-09-23T12:42:19.793Z,13.21
2022-09-23T12:45:43.027Z,13.22
2022-09-23T12:49:24.048Z,13.10
2022-09-23T12:52:47.305Z,13.07
2022-09-23T12:56:18.058Z,13.05
2022-09-23T13:00:02.213Z,13.03
2022-09-23T13:03:42.270Z,12.96
2022-09-23T13:07:13.419Z,12.95
2022-09-23T13:10:40.271Z,12.91
2022-09-23T13:14:07.556Z,12.96
2022-09-23T13:18:15.249Z,13.05
2022-09-23T13:26:34.267Z,13.06
2022-09-23T13:30:04.684Z,13.03
2022-09-23T13:33:41.057Z,12.91
2022-09-23T13:37:22.894Z,12.80
2022-09-23T13:40:46.967Z,12.79
2022-09-23T13:44:20.970Z,12.75
2022-09-23T13:47:46.487Z,12.68
2022-09-23T13:51:12.317Z,12.60
2022-09-23T13:54:37.127Z,12.53
2022-09-23T13:58:02.943Z,12.50
2022-09-23T14:01:38.038Z,12.47
2022-09-23T14:05:01.093Z,12.43
2022-09-23T14:08:24.624Z,12.38
2022-09-23T14:11:47.890Z,12.35
2022-09-23T14:15:16.131Z,12.37
2022-09-23T14:18:43.443Z,12.37
2022-09-23T14:22:09.242Z,12.31
2022-09-23T14:25:36.330Z,12.26
2022-09-23T14:29:00.103Z,12.21
2022-09-23T14:32:25.523Z,12.15
2022-09-23T14:35:52.884Z,12.06
2022-09-23T14:39:17.284Z,12.06
2022-09-23T14:42:43.110Z,12.00
2022-09-23T14:46:06.519Z,11.94
2022-09-23T14:49:30.054Z,11.96
2022-09-23T14:52:54.754Z,11.95
2022-09-23T14:56:22.843Z,11.89
2022-09-23T14:59:52.959Z,11.88
2022-09-23T15:03:18.652Z,11.84
2022-09-23T15:06:47.085Z,11.76
2022-09-23T15:10:23.963Z,11.65
2022-09-23T15:13:52.968Z,11.70
2022-09-23T15:17:33.023Z,11.62
2022-09-23T15:20:58.198Z,11.53
2022-09-23T15:24:40.042Z,11.45
2022-09-23T15:28:24.093Z,11.38
2022-09-23T15:31:47.027Z,11.31
2022-09-23T15:35:14.327Z,11.23
2022-09-23T15:38:36.974Z,11.13
2022-09-23T15:42:02.087Z,11.04
2022-09-23T15:45:34.933Z,10.93
2022-09-23T15:49:02.153Z,10.80
2022-09-23T15:52:25.094Z,10.67
2022-09-23T15:55:51.024Z,10.59
2022-09-23T15:59:14.167Z,10.47
2022-09-23T16:02:39.038Z,10.35
2022-09-23T16:06:04.795Z,10.22
2022-09-23T16:09:28.085Z,10.10
2022-09-23T16:12:51.870Z,9.94
2022-09-23T16:16:16.704Z,9.80
2022-09-23T16:19:41.227Z,9.70
2022-09-23T16:23:06.686Z,9.56
2022-09-23T16:26:32.303Z,9.45
2022-09-23T16:29:55.373Z,9.29
2022-09-23T16:33:18.017Z,9.13
2022-09-23T16:36:45.182Z,8.98
2022-09-23T16:40:12.069Z,8.79
2022-09-23T16:43:40.112Z,8.65
2022-09-23T16:47:03.192Z,8.54
2022-09-23T16:50:26.546Z,8.39
2022-09-23T16:53:52.186Z,8.27
2022-09-23T16:57:15.025Z,8.14
2022-09-23T17:01:03.313Z,8.04
2022-09-23T17:04:26.144Z,7.95
2022-09-23T17:07:49.097Z,7.85
2022-09-23T17:11:15.027Z,7.76
2022-09-23T17:14:38.395Z,7.74
2022-09-23T17:18:02.067Z,7.66
2022-09-23T17:21:27.082Z,7.60
2022-09-23T17:24:49.733Z,7.50
2022-09-23T17:28:17.402Z,7.41
2022-09-23T17:31:40.410Z,7.33
2022-09-23T17:35:05.160Z,7.13
2022-09-23T17:38:29.425Z,7.19
2022-09-23T17:41:58.976Z,7.14
2022-09-23T17:45:23.557Z,7.07
2022-09-23T17:48:47.350Z,6.98
2022-09-23T17:52:10.309Z,6.87
2022-09-23T17:55:32.962Z,6.83
2022-09-23T17:58:56.024Z,6.76
2022-09-23T18:02:21.184Z,6.67
2022-09-23T18:05:43.678Z,6.59
2022-09-23T18:09:09.271Z,6.56
2022-09-23T18:12:32.056Z,6.49
2022-09-23T18:15:54.766Z,6.45
2022-09-23T18:19:20.336Z,6.37
2022-09-23T18:22:43.393Z,6.28
2022-09-23T18:26:14.656Z,6.23
2022-09-23T18:29:37.606Z,6.15
2022-09-23T18:33:02.117Z,6.12
2022-09-23T18:36:26.805Z,6.03
2022-09-23T18:39:50.391Z,6.06
2022-09-23T18:43:17.286Z,6.01
2022-09-23T18:46:43.220Z,5.97
2022-09-23T18:50:23.943Z,5.89
2022-09-23T18:53:50.588Z,5.79
2022-09-23T18:57:15.189Z,5.68
2022-09-23T19:00:38.723Z,5.65
2022-09-23T19:04:03.741Z,5.55
2022-09-23T19:07:26.727Z,5.46
2022-09-23T19:10:58.088Z,5.45
2022-09-23T19:14:20.632Z,5.38
2022-09-23T19:17:43.705Z,5.29
2022-09-23T19:21:07.994Z,5.25
2022-09-23T19:24:30.748Z,5.19
2022-09-23T19:27:55.645Z,5.11
2022-09-23T19:31:22.680Z,5.07
2022-09-23T19:34:46.691Z,5.04
2022-09-23T19:38:10.158Z,5.00
2022-09-23T19:41:34.045Z,4.92
2022-09-23T19:45:03.655Z,4.89
2022-09-23T19:48:27.029Z,4.85
2022-09-23T19:51:50.419Z,4.81
2022-09-23T19:55:14.071Z,4.78
2022-09-23T19:58:37.141Z,4.75
2022-09-23T20:02:02.185Z,4.70
2022-09-23T20:05:25.237Z,4.68
2022-09-23T20:08:49.241Z,4.61
2022-09-23T20:12:12.564Z,4.56
2022-09-23T20:15:35.727Z,4.51
2022-09-23T20:19:00.453Z,4.51
2022-09-23T20:22:33.067Z,4.48
2022-09-23T20:26:15.169Z,4.46
2022-09-23T20:29:39.013Z,4.40
2022-09-23T20:33:01.752Z,4.32
2022-09-23T20:36:30.141Z,4.28
2022-09-23T20:39:54.247Z,4.23
2022-09-23T20:43:18.626Z,4.17
2022-09-23T20:46:46.930Z,4.12
2022-09-23T20:50:11.818Z,4.05
2022-09-23T20:53:36.721Z,4.05
2022-09-23T20:57:01.008Z,4.03
2022-09-23T21:00:24.078Z,4.01
2022-09-23T21:03:48.769Z,3.98
2022-09-23T21:07:11.835Z,3.95
2022-09-23T21:10:36.129Z,3.92
2022-09-23T21:13:59.086Z,3.87
2022-09-23T21:17:23.262Z,3.86
2022-09-23T21:20:56.257Z,3.82
2022-09-23T21:25:25.324Z,3.79
2022-09-23T21:28:05.443Z,3.76
2022-09-23T21:31:32.635Z,3.71
2022-09-23T21:34:55.265Z,3.70
2022-09-23T21:38:18.209Z,3.67
2022-09-23T21:41:41.469Z,3.62
2022-09-23T21:45:06.688Z,3.57
2022-09-23T21:48:30.473Z,3.56
2022-09-23T21:51:59.471Z,3.56
2022-09-23T21:55:22.219Z,3.51
2022-09-23T21:58:45.266Z,3.47
2022-09-23T22:02:09.673Z,3.43
2022-09-23T22:05:32.636Z,3.38
2022-09-23T22:08:59.397Z,3.33
2022-09-23T22:12:22.341Z,3.27
2022-09-23T22:15:45.175Z,3.24
2022-09-23T22:19:13.274Z,3.21
2022-09-23T22:22:36.278Z,3.18
2022-09-23T22:26:03.213Z,3.16
2022-09-23T22:29:43.565Z,3.11
2022-09-23T22:33:07.650Z,3.04
2022-09-23T22:36:31.835Z,3.02
2022-09-23T22:39:55.280Z,3.00
2022-09-23T22:43:18.985Z,2.96
2022-09-23T22:46:42.179Z,2.93
2022-09-23T22:50:06.248Z,2.90
2022-09-23T22:53:32.163Z,2.89
2022-09-23T22:56:54.721Z,2.88
2022-09-23T23:00:17.983Z,2.85
2022-09-23T23:03:42.206Z,2.84
2022-09-23T23:07:06.468Z,2.83
2022-09-23T23:10:31.482Z,2.81
2022-09-23T23:13:55.292Z,2.75
2022-09-23T23:17:19.236Z,2.68
2022-09-23T23:20:42.300Z,2.68
2022-09-23T23:24:06.334Z,2.63
2022-09-23T23:27:30.780Z,2.60
2022-09-23T23:30:53.944Z,2.57
2022-09-23T23:34:19.165Z,2.54
2022-09-23T23:37:42.224Z,2.53
2022-09-23T23:41:05.078Z,2.50
2022-09-23T23:44:31.121Z,2.47
2022-09-23T23:47:54.071Z,2.41
2022-09-23T23:51:18.273Z,2.35
2022-09-23T23:54:41.116Z,2.30
2022-09-23T23:58:04.281Z,2.27
